sensor_id;sensor_type;location;lat;lon;timestamp;P1;durP1;ratioP1;P2;durP2;ratioP2
66145;SDS011;52948;60.040;30.320;2023-01-13T00:03:03;8.50;;;4.65;;
66145;SDS011;52948;60.040;30.320;2023-01-13T00:08:05;5.95;;;4.18;;
66145;SDS011;52948;60.040;30.320;2023-01-13T00:13:11;5.97;;;4.18;;
66145;SDS011;52948;60.040;30.320;2023-01-13T00:18:13;8.40;;;5.43;;
66145;SDS011;52948;60.040;30.320;2023-01-13T00:23:16;7.60;;;4.57;;
66145;SDS011;52948;60.040;30.320;2023-01-13T00:28:18;6.47;;;4.35;;
66145;SDS011;52948;60.040;30.320;2023-01-13T00:33:24;4.03;;;2.40;;
66145;SDS011;52948;60.040;30.320;2023-01-13T00:38:31;8.43;;;4.80;;
66145;SDS011;52948;60.040;30.320;2023-01-13T00:43:35;6.68;;;4.03;;
66145;SDS011;52948;60.040;30.320;2023-01-13T00:48:42;6.53;;;4.32;;
66145;SDS011;52948;60.040;30.320;2023-01-13T00:53:46;5.63;;;3.65;;
66145;SDS011;52948;60.040;30.320;2023-01-13T00:58:49;5.47;;;3.63;;
66145;SDS011;52948;60.040;30.320;2023-01-13T01:03:53;6.88;;;3.90;;
66145;SDS011;52948;60.040;30.320;2023-01-13T01:08:55;5.80;;;3.70;;
66145;SDS011;52948;60.040;30.320;2023-01-13T01:13:59;6.35;;;4.13;;
66145;SDS011;52948;60.040;30.320;2023-01-13T01:19:02;7.28;;;4.43;;
66145;SDS011;52948;60.040;30.320;2023-01-13T01:24:05;5.25;;;3.67;;
66145;SDS011;52948;60.040;30.320;2023-01-13T01:29:10;7.10;;;4.00;;
66145;SDS011;52948;60.040;30.320;2023-01-13T01:34:14;5.80;;;3.63;;
66145;SDS011;52948;60.040;30.320;2023-01-13T01:39:16;5.40;;;3.10;;
66145;SDS011;52948;60.040;30.320;2023-01-13T01:49:42;3.15;;;2.65;;
66145;SDS011;52948;60.040;30.320;2023-01-13T01:54:51;5.07;;;3.17;;
66145;SDS011;52948;60.040;30.320;2023-01-13T02:00:06;5.90;;;3.50;;
66145;SDS011;52948;60.040;30.320;2023-01-13T02:05:15;4.25;;;2.88;;
66145;SDS011;52948;60.040;30.320;2023-01-13T02:10:19;5.75;;;3.38;;
66145;SDS011;52948;60.040;30.320;2023-01-13T02:15:26;5.03;;;3.08;;
66145;SDS011;52948;60.040;30.320;2023-01-13T02:20:43;5.50;;;2.97;;
66145;SDS011;52948;60.040;30.320;2023-01-13T02:25:54;4.75;;;3.00;;
66145;SDS011;52948;60.040;30.320;2023-01-13T02:31:05;4.78;;;2.80;;
66145;SDS011;52948;60.040;30.320;2023-01-13T02:36:30;5.97;;;3.17;;
66145;SDS011;52948;60.040;30.320;2023-01-13T02:47:21;4.55;;;2.83;;
66145;SDS011;52948;60.040;30.320;2023-01-13T02:52:36;2.88;;;2.00;;
66145;SDS011;52948;60.040;30.320;2023-01-13T02:57:41;4.90;;;3.20;;
66145;SDS011;52948;60.040;30.320;2023-01-13T03:02:46;3.38;;;2.13;;
66145;SDS011;52948;60.040;30.320;2023-01-13T03:18:46;4.57;;;2.63;;
66145;SDS011;52948;60.040;30.320;2023-01-13T03:23:59;3.35;;;1.90;;
66145;SDS011;52948;60.040;30.320;2023-01-13T03:34:08;3.85;;;2.50;;
66145;SDS011;52948;60.040;30.320;2023-01-13T03:39:19;3.72;;;2.70;;
66145;SDS011;52948;60.040;30.320;2023-01-13T03:44:28;5.18;;;3.45;;
66145;SDS011;52948;60.040;30.320;2023-01-13T03:49:39;3.08;;;2.30;;
66145;SDS011;52948;60.040;30.320;2023-01-13T04:00:22;4.47;;;2.38;;
66145;SDS011;52948;60.040;30.320;2023-01-13T04:05:28;4.53;;;2.97;;
66145;SDS011;52948;60.040;30.320;2023-01-13T04:10:33;3.00;;;1.48;;
66145;SDS011;52948;60.040;30.320;2023-01-13T04:15:43;2.70;;;2.10;;
66145;SDS011;52948;60.040;30.320;2023-01-13T04:20:47;7.53;;;2.65;;
66145;SDS011;52948;60.040;30.320;2023-01-13T04:25:50;4.97;;;2.00;;
66145;SDS011;52948;60.040;30.320;2023-01-13T04:30:53;5.97;;;2.13;;
66145;SDS011;52948;60.040;30.320;2023-01-13T04:35:55;3.55;;;1.52;;
66145;SDS011;52948;60.040;30.320;2023-01-13T04:40:57;2.28;;;1.92;;
66145;SDS011;52948;60.040;30.320;2023-01-13T04:46:00;1.70;;;1.08;;
66145;SDS011;52948;60.040;30.320;2023-01-13T04:51:03;3.80;;;1.98;;
66145;SDS011;52948;60.040;30.320;2023-01-13T04:56:05;5.40;;;2.30;;
66145;SDS011;52948;60.040;30.320;2023-01-13T05:01:07;4.18;;;1.65;;
66145;SDS011;52948;60.040;30.320;2023-01-13T05:06:16;4.97;;;2.30;;
66145;SDS011;52948;60.040;30.320;2023-01-13T05:11:19;4.38;;;2.20;;
66145;SDS011;52948;60.040;30.320;2023-01-13T05:16:40;3.30;;;1.40;;
66145;SDS011;52948;60.040;30.320;2023-01-13T05:22:01;2.40;;;1.75;;
66145;SDS011;52948;60.040;30.320;2023-01-13T05:27:21;1.63;;;1.52;;
66145;SDS011;52948;60.040;30.320;2023-01-13T05:32:24;2.42;;;1.75;;
66145;SDS011;52948;60.040;30.320;2023-01-13T05:37:28;2.90;;;1.80;;
66145;SDS011;52948;60.040;30.320;2023-01-13T05:42:31;1.50;;;1.38;;
66145;SDS011;52948;60.040;30.320;2023-01-13T05:47:51;1.23;;;1.05;;
66145;SDS011;52948;60.040;30.320;2023-01-13T05:52:54;3.67;;;1.75;;
66145;SDS011;52948;60.040;30.320;2023-01-13T05:57:56;3.05;;;1.63;;
66145;SDS011;52948;60.040;30.320;2023-01-13T06:02:58;4.40;;;2.03;;
66145;SDS011;52948;60.040;30.320;2023-01-13T06:08:01;1.25;;;0.98;;
66145;SDS011;52948;60.040;30.320;2023-01-13T06:13:04;2.92;;;1.60;;
66145;SDS011;52948;60.040;30.320;2023-01-13T06:18:07;2.28;;;1.70;;
66145;SDS011;52948;60.040;30.320;2023-01-13T06:23:09;3.10;;;2.20;;
66145;SDS011;52948;60.040;30.320;2023-01-13T06:28:12;2.25;;;1.38;;
66145;SDS011;52948;60.040;30.320;2023-01-13T06:33:16;3.05;;;1.00;;
66145;SDS011;52948;60.040;30.320;2023-01-13T06:38:21;1.33;;;1.20;;
66145;SDS011;52948;60.040;30.320;2023-01-13T06:43:25;4.13;;;2.70;;
66145;SDS011;52948;60.040;30.320;2023-01-13T06:48:28;2.30;;;1.42;;
66145;SDS011;52948;60.040;30.320;2023-01-13T06:53:33;2.35;;;1.55;;
66145;SDS011;52948;60.040;30.320;2023-01-13T06:58:36;6.22;;;2.35;;
66145;SDS011;52948;60.040;30.320;2023-01-13T07:03:39;2.45;;;1.60;;
66145;SDS011;52948;60.040;30.320;2023-01-13T07:08:41;4.72;;;2.15;;
66145;SDS011;52948;60.040;30.320;2023-01-13T07:13:44;5.95;;;1.85;;
66145;SDS011;52948;60.040;30.320;2023-01-13T07:19:05;3.63;;;2.63;;
66145;SDS011;52948;60.040;30.320;2023-01-13T07:24:11;6.95;;;3.53;;
66145;SDS011;52948;60.040;30.320;2023-01-13T07:29:13;4.85;;;2.75;;
66145;SDS011;52948;60.040;30.320;2023-01-13T07:34:15;4.03;;;1.92;;
66145;SDS011;52948;60.040;30.320;2023-01-13T07:39:21;2.47;;;1.63;;
66145;SDS011;52948;60.040;30.320;2023-01-13T07:44:24;3.72;;;2.05;;
66145;SDS011;52948;60.040;30.320;2023-01-13T07:49:26;1.92;;;1.27;;
66145;SDS011;52948;60.040;30.320;2023-01-13T07:54:28;6.30;;;2.83;;
66145;SDS011;52948;60.040;30.320;2023-01-13T07:59:30;1.98;;;1.67;;
66145;SDS011;52948;60.040;30.320;2023-01-13T08:04:33;4.40;;;2.42;;
66145;SDS011;52948;60.040;30.320;2023-01-13T08:09:35;3.90;;;1.73;;
66145;SDS011;52948;60.040;30.320;2023-01-13T08:14:37;3.83;;;1.77;;
66145;SDS011;52948;60.040;30.320;2023-01-13T08:19:40;5.82;;;2.22;;
66145;SDS011;52948;60.040;30.320;2023-01-13T08:24:42;3.28;;;2.35;;
66145;SDS011;52948;60.040;30.320;2023-01-13T08:29:44;3.15;;;1.90;;
66145;SDS011;52948;60.040;30.320;2023-01-13T08:34:46;5.07;;;1.95;;
66145;SDS011;52948;60.040;30.320;2023-01-13T08:39:48;3.55;;;2.05;;
66145;SDS011;52948;60.040;30.320;2023-01-13T08:44:55;3.30;;;2.13;;
66145;SDS011;52948;60.040;30.320;2023-01-13T08:49:57;2.00;;;1.80;;
66145;SDS011;52948;60.040;30.320;2023-01-13T08:55:04;2.28;;;1.55;;
66145;SDS011;52948;60.040;30.320;2023-01-13T09:00:09;2.38;;;1.38;;
66145;SDS011;52948;60.040;30.320;2023-01-13T09:05:11;0.98;;;0.77;;
66145;SDS011;52948;60.040;30.320;2023-01-13T09:10:14;9.52;;;1.95;;
66145;SDS011;52948;60.040;30.320;2023-01-13T09:15:16;2.28;;;1.00;;
66145;SDS011;52948;60.040;30.320;2023-01-13T09:20:19;2.28;;;1.48;;
66145;SDS011;52948;60.040;30.320;2023-01-13T09:25:22;2.17;;;1.20;;
66145;SDS011;52948;60.040;30.320;2023-01-13T09:30:24;2.28;;;1.45;;
66145;SDS011;52948;60.040;30.320;2023-01-13T09:35:26;2.15;;;1.55;;
66145;SDS011;52948;60.040;30.320;2023-01-13T09:40:29;2.28;;;1.40;;
66145;SDS011;52948;60.040;30.320;2023-01-13T09:45:33;1.42;;;1.23;;
66145;SDS011;52948;60.040;30.320;2023-01-13T09:56:08;2.33;;;1.27;;
66145;SDS011;52948;60.040;30.320;2023-01-13T10:06:43;1.77;;;1.38;;
66145;SDS011;52948;60.040;30.320;2023-01-13T10:11:49;0.63;;;0.63;;
66145;SDS011;52948;60.040;30.320;2023-01-13T10:17:35;1.92;;;1.13;;
66145;SDS011;52948;60.040;30.320;2023-01-13T10:28:28;2.83;;;0.93;;
66145;SDS011;52948;60.040;30.320;2023-01-13T10:33:34;2.63;;;1.60;;
66145;SDS011;52948;60.040;30.320;2023-01-13T10:38:46;2.10;;;1.27;;
66145;SDS011;52948;60.040;30.320;2023-01-13T10:49:01;2.95;;;1.40;;
66145;SDS011;52948;60.040;30.320;2023-01-13T11:04:27;2.85;;;0.98;;
66145;SDS011;52948;60.040;30.320;2023-01-13T11:14:37;2.22;;;1.30;;
66145;SDS011;52948;60.040;30.320;2023-01-13T11:19:46;1.13;;;0.88;;
66145;SDS011;52948;60.040;30.320;2023-01-13T11:24:52;0.60;;;0.60;;
66145;SDS011;52948;60.040;30.320;2023-01-13T11:35:19;2.45;;;1.48;;
66145;SDS011;52948;60.040;30.320;2023-01-13T11:45:52;1.67;;;1.13;;
66145;SDS011;52948;60.040;30.320;2023-01-13T11:56:19;2.10;;;1.52;;
66145;SDS011;52948;60.040;30.320;2023-01-13T12:07:00;2.50;;;1.63;;
66145;SDS011;52948;60.040;30.320;2023-01-13T12:23:31;2.60;;;1.70;;
66145;SDS011;52948;60.040;30.320;2023-01-13T12:29:18;2.45;;;2.05;;
66145;SDS011;52948;60.040;30.320;2023-01-13T12:34:27;4.50;;;1.95;;
66145;SDS011;52948;60.040;30.320;2023-01-13T12:39:54;2.13;;;1.48;;
66145;SDS011;52948;60.040;30.320;2023-01-13T12:50:36;5.18;;;2.33;;
66145;SDS011;52948;60.040;30.320;2023-01-13T12:55:41;3.05;;;2.03;;
66145;SDS011;52948;60.040;30.320;2023-01-13T13:06:05;7.03;;;3.17;;
66145;SDS011;52948;60.040;30.320;2023-01-13T13:16:34;3.78;;;1.85;;
66145;SDS011;52948;60.040;30.320;2023-01-13T13:32:32;4.85;;;2.83;;
66145;SDS011;52948;60.040;30.320;2023-01-13T13:43:29;7.43;;;3.55;;
66145;SDS011;52948;60.040;30.320;2023-01-13T13:48:57;6.60;;;3.33;;
66145;SDS011;52948;60.040;30.320;2023-01-13T13:53:59;11.43;;;3.72;;
66145;SDS011;52948;60.040;30.320;2023-01-13T13:59:03;4.60;;;2.25;;
66145;SDS011;52948;60.040;30.320;2023-01-13T14:04:13;3.58;;;2.42;;
66145;SDS011;52948;60.040;30.320;2023-01-13T14:09:17;9.73;;;3.97;;
66145;SDS011;52948;60.040;30.320;2023-01-13T14:14:20;7.20;;;3.53;;
66145;SDS011;52948;60.040;30.320;2023-01-13T14:19:28;9.50;;;4.60;;
66145;SDS011;52948;60.040;30.320;2023-01-13T14:24:31;6.13;;;2.83;;
66145;SDS011;52948;60.040;30.320;2023-01-13T14:29:33;8.30;;;3.78;;
66145;SDS011;52948;60.040;30.320;2023-01-13T14:34:36;7.18;;;3.58;;
66145;SDS011;52948;60.040;30.320;2023-01-13T14:39:40;5.72;;;3.15;;
66145;SDS011;52948;60.040;30.320;2023-01-13T14:44:43;5.68;;;2.50;;
66145;SDS011;52948;60.040;30.320;2023-01-13T14:50:02;8.05;;;4.10;;
66145;SDS011;52948;60.040;30.320;2023-01-13T15:10:19;3.50;;;2.00;;
66145;SDS011;52948;60.040;30.320;2023-01-13T15:15:32;8.63;;;3.70;;
66145;SDS011;52948;60.040;30.320;2023-01-13T15:20:37;4.80;;;3.40;;
66145;SDS011;52948;60.040;30.320;2023-01-13T15:25:40;3.70;;;2.67;;
66145;SDS011;52948;60.040;30.320;2023-01-13T15:30:44;7.82;;;3.63;;
66145;SDS011;52948;60.040;30.320;2023-01-13T15:35:51;5.32;;;2.88;;
66145;SDS011;52948;60.040;30.320;2023-01-13T15:40:58;4.72;;;2.53;;
66145;SDS011;52948;60.040;30.320;2023-01-13T15:46:16;8.80;;;3.03;;
66145;SDS011;52948;60.040;30.320;2023-01-13T15:51:38;6.45;;;3.10;;
66145;SDS011;52948;60.040;30.320;2023-01-13T15:57:08;2.63;;;1.53;;
66145;SDS011;52948;60.040;30.320;2023-01-13T16:02:32;6.85;;;3.88;;
66145;SDS011;52948;60.040;30.320;2023-01-13T16:07:38;4.45;;;2.85;;
66145;SDS011;52948;60.040;30.320;2023-01-13T16:12:41;11.02;;;4.00;;
66145;SDS011;52948;60.040;30.320;2023-01-13T16:17:49;6.18;;;3.58;;
66145;SDS011;52948;60.040;30.320;2023-01-13T16:23:12;4.57;;;3.22;;
66145;SDS011;52948;60.040;30.320;2023-01-13T16:28:22;6.32;;;3.90;;
66145;SDS011;52948;60.040;30.320;2023-01-13T16:33:25;5.25;;;2.75;;
66145;SDS011;52948;60.040;30.320;2023-01-13T16:38:28;5.88;;;3.45;;
66145;SDS011;52948;60.040;30.320;2023-01-13T16:43:31;6.30;;;3.92;;
66145;SDS011;52948;60.040;30.320;2023-01-13T16:48:33;1.45;;;1.30;;
66145;SDS011;52948;60.040;30.320;2023-01-13T16:53:36;3.83;;;2.05;;
66145;SDS011;52948;60.040;30.320;2023-01-13T16:58:38;7.35;;;2.67;;
66145;SDS011;52948;60.040;30.320;2023-01-13T17:03:41;5.65;;;3.47;;
66145;SDS011;52948;60.040;30.320;2023-01-13T17:08:43;3.13;;;2.13;;
66145;SDS011;52948;60.040;30.320;2023-01-13T17:13:45;5.32;;;3.13;;
66145;SDS011;52948;60.040;30.320;2023-01-13T17:18:51;2.92;;;2.47;;
66145;SDS011;52948;60.040;30.320;2023-01-13T17:23:54;4.75;;;2.05;;
66145;SDS011;52948;60.040;30.320;2023-01-13T17:29:00;2.15;;;1.63;;
66145;SDS011;52948;60.040;30.320;2023-01-13T17:34:03;5.47;;;2.75;;
66145;SDS011;52948;60.040;30.320;2023-01-13T17:39:05;5.40;;;3.00;;
66145;SDS011;52948;60.040;30.320;2023-01-13T17:44:08;6.20;;;3.30;;
66145;SDS011;52948;60.040;30.320;2023-01-13T17:49:14;3.97;;;2.97;;
66145;SDS011;52948;60.040;30.320;2023-01-13T17:54:20;5.00;;;2.58;;
66145;SDS011;52948;60.040;30.320;2023-01-13T17:59:26;2.75;;;2.47;;
66145;SDS011;52948;60.040;30.320;2023-01-13T18:04:28;6.45;;;2.63;;
66145;SDS011;52948;60.040;30.320;2023-01-13T18:09:31;4.07;;;2.40;;
66145;SDS011;52948;60.040;30.320;2023-01-13T18:14:34;3.53;;;2.58;;
66145;SDS011;52948;60.040;30.320;2023-01-13T18:19:37;4.93;;;1.85;;
66145;SDS011;52948;60.040;30.320;2023-01-13T18:24:58;3.63;;;2.20;;
66145;SDS011;52948;60.040;30.320;2023-01-13T18:30:19;4.32;;;2.10;;
66145;SDS011;52948;60.040;30.320;2023-01-13T18:35:22;3.70;;;2.22;;
66145;SDS011;52948;60.040;30.320;2023-01-13T18:40:25;3.97;;;2.28;;
66145;SDS011;52948;60.040;30.320;2023-01-13T18:45:31;1.42;;;1.33;;
66145;SDS011;52948;60.040;30.320;2023-01-13T18:50:37;3.55;;;2.47;;
66145;SDS011;52948;60.040;30.320;2023-01-13T18:55:44;2.33;;;1.83;;
66145;SDS011;52948;60.040;30.320;2023-01-13T19:00:58;2.83;;;2.00;;
66145;SDS011;52948;60.040;30.320;2023-01-13T19:06:02;3.20;;;2.25;;
66145;SDS011;52948;60.040;30.320;2023-01-13T19:11:14;3.60;;;2.33;;
66145;SDS011;52948;60.040;30.320;2023-01-13T19:16:17;2.00;;;1.80;;
66145;SDS011;52948;60.040;30.320;2023-01-13T19:21:22;2.95;;;2.00;;
66145;SDS011;52948;60.040;30.320;2023-01-13T19:26:25;3.92;;;1.70;;
66145;SDS011;52948;60.040;30.320;2023-01-13T19:31:28;3.50;;;1.45;;
66145;SDS011;52948;60.040;30.320;2023-01-13T19:36:30;2.75;;;1.60;;
66145;SDS011;52948;60.040;30.320;2023-01-13T19:41:32;4.47;;;1.58;;
66145;SDS011;52948;60.040;30.320;2023-01-13T19:46:54;2.47;;;1.55;;
66145;SDS011;52948;60.040;30.320;2023-01-13T19:51:57;1.60;;;1.20;;
66145;SDS011;52948;60.040;30.320;2023-01-13T19:56:59;2.00;;;1.50;;
66145;SDS011;52948;60.040;30.320;2023-01-13T20:02:02;1.95;;;1.15;;
66145;SDS011;52948;60.040;30.320;2023-01-13T20:07:05;2.22;;;1.40;;
66145;SDS011;52948;60.040;30.320;2023-01-13T20:12:08;2.72;;;1.73;;
66145;SDS011;52948;60.040;30.320;2023-01-13T20:17:16;4.28;;;1.60;;
66145;SDS011;52948;60.040;30.320;2023-01-13T20:22:19;2.85;;;1.20;;
66145;SDS011;52948;60.040;30.320;2023-01-13T20:27:22;1.77;;;1.15;;
66145;SDS011;52948;60.040;30.320;2023-01-13T20:32:25;2.28;;;1.90;;
66145;SDS011;52948;60.040;30.320;2023-01-13T20:37:27;2.63;;;1.88;;
66145;SDS011;52948;60.040;30.320;2023-01-13T20:42:32;1.63;;;1.52;;
66145;SDS011;52948;60.040;30.320;2023-01-13T20:47:45;0.82;;;0.82;;
66145;SDS011;52948;60.040;30.320;2023-01-13T20:52:47;2.47;;;1.80;;
66145;SDS011;52948;60.040;30.320;2023-01-13T20:57:50;2.08;;;1.45;;
66145;SDS011;52948;60.040;30.320;2023-01-13T21:02:52;2.65;;;2.17;;
66145;SDS011;52948;60.040;30.320;2023-01-13T21:07:55;0.82;;;0.73;;
66145;SDS011;52948;60.040;30.320;2023-01-13T21:12:57;3.47;;;2.42;;
66145;SDS011;52948;60.040;30.320;2023-01-13T21:18:18;4.40;;;2.47;;
66145;SDS011;52948;60.040;30.320;2023-01-13T21:23:39;4.57;;;2.30;;
66145;SDS011;52948;60.040;30.320;2023-01-13T21:28:43;3.67;;;2.55;;
66145;SDS011;52948;60.040;30.320;2023-01-13T21:33:45;2.60;;;2.38;;
66145;SDS011;52948;60.040;30.320;2023-01-13T21:38:49;2.83;;;2.53;;
66145;SDS011;52948;60.040;30.320;2023-01-13T21:43:56;2.83;;;2.17;;
66145;SDS011;52948;60.040;30.320;2023-01-13T21:49:16;3.03;;;2.33;;
66145;SDS011;52948;60.040;30.320;2023-01-13T21:54:18;3.83;;;2.35;;
66145;SDS011;52948;60.040;30.320;2023-01-13T21:59:21;3.38;;;2.50;;
66145;SDS011;52948;60.040;30.320;2023-01-13T22:04:23;3.83;;;2.55;;
66145;SDS011;52948;60.040;30.320;2023-01-13T22:09:25;4.97;;;3.00;;
66145;SDS011;52948;60.040;30.320;2023-01-13T22:14:27;2.80;;;2.05;;
66145;SDS011;52948;60.040;30.320;2023-01-13T22:19:32;4.60;;;2.72;;
66145;SDS011;52948;60.040;30.320;2023-01-13T22:24:37;5.18;;;3.10;;
66145;SDS011;52948;60.040;30.320;2023-01-13T22:29:44;4.30;;;2.78;;
66145;SDS011;52948;60.040;30.320;2023-01-13T22:34:47;3.88;;;2.70;;
66145;SDS011;52948;60.040;30.320;2023-01-13T22:39:49;3.95;;;2.60;;
66145;SDS011;52948;60.040;30.320;2023-01-13T22:44:51;3.70;;;2.95;;
66145;SDS011;52948;60.040;30.320;2023-01-13T22:49:54;6.85;;;3.03;;
66145;SDS011;52948;60.040;30.320;2023-01-13T22:54:56;4.43;;;3.10;;
66145;SDS011;52948;60.040;30.320;2023-01-13T22:59:59;4.20;;;2.58;;
66145;SDS011;52948;60.040;30.320;2023-01-13T23:05:01;5.25;;;2.67;;
66145;SDS011;52948;60.040;30.320;2023-01-13T23:10:04;3.90;;;2.88;;
66145;SDS011;52948;60.040;30.320;2023-01-13T23:15:07;3.33;;;2.42;;
66145;SDS011;52948;60.040;30.320;2023-01-13T23:20:10;3.78;;;2.28;;
66145;SDS011;52948;60.040;30.320;2023-01-13T23:25:12;2.72;;;1.90;;
66145;SDS011;52948;60.040;30.320;2023-01-13T23:30:14;3.25;;;2.42;;
66145;SDS011;52948;60.040;30.320;2023-01-13T23:35:17;3.63;;;2.10;;
66145;SDS011;52948;60.040;30.320;2023-01-13T23:40:19;2.70;;;1.80;;
66145;SDS011;52948;60.040;30.320;2023-01-13T23:45:21;2.50;;;1.65;;
66145;SDS011;52948;60.040;30.320;2023-01-13T23:50:23;2.90;;;1.85;;
66145;SDS011;52948;60.040;30.320;2023-01-13T23:55:25;1.80;;;1.50;;
